Time;durP1;ratioP1;P1;durP2;ratioP2;P2;SDS_P1;SDS_P2;PMS_P1;PMS_P2;Temp;Humidity;BMP_temperature;BMP_pressure;BME280_temperature;BME280_humidity;BME280_pressure;Samples;Min_cycle;Max_cycle;Signal;HPM_P1;HPM_P2
2021/04/07 00:00:18;;;;;;;2.95;1.95;;;;;;;7.29;59.91;100215.28;5046774;28;20511;-77
2021/04/07 00:03:04;;;;;;;4.88;2.22;;;;;;;7.23;60.30;100213.78;5042268;28;20045;-78
2021/04/07 00:05:49;;;;;;;4.43;2.00;;;;;;;7.22;59.78;100215.69;5049970;28;20048;-77
2021/04/07 00:08:34;;;;;;;4.70;1.65;;;;;;;7.21;60.47;100205.19;5049236;28;20052;-77
2021/04/07 00:11:19;;;;;;;2.90;1.73;;;;;;;7.16;60.55;100203.38;5046851;28;20057;-77
2021/04/07 00:14:08;;;;;;;5.53;1.45;;;;;;;7.19;60.37;100215.50;5044265;28;20053;-78
2021/04/07 00:16:52;;;;;;;4.80;2.15;;;;;;;7.05;59.59;100212.03;5050301;28;20052;-78
2021/04/07 00:19:37;;;;;;;4.50;1.65;;;;;;;6.90;60.12;100217.78;5043663;28;20044;-77
2021/04/07 00:22:22;;;;;;;7.70;2.10;;;;;;;6.97;59.73;100218.16;5042969;28;20417;-77
2021/04/07 00:25:07;;;;;;;4.63;2.15;;;;;;;6.91;59.90;100213.97;5047903;28;20048;-78
2021/04/07 00:27:55;;;;;;;5.30;2.53;;;;;;;7.17;58.39;100213.09;5046557;28;20512;-77
2021/04/07 00:30:40;;;;;;;7.22;2.58;;;;;;;7.26;57.37;100210.50;5047595;28;20519;-78
2021/04/07 00:33:25;;;;;;;5.10;2.90;;;;;;;7.02;57.76;100210.72;5047720;28;20064;-77
2021/04/07 00:36:10;;;;;;;7.13;2.63;;;;;;;7.00;57.10;100212.97;5041891;28;20052;-77
2021/04/07 00:38:55;;;;;;;4.18;1.92;;;;;;;6.98;57.16;100203.53;5041773;28;20065;-77
2021/04/07 00:41:40;;;;;;;4.97;2.20;;;;;;;7.09;57.67;100211.13;5046594;28;20043;-77
2021/04/07 00:44:25;;;;;;;3.65;2.20;;;;;;;7.06;56.77;100200.91;5046242;28;20048;-77
2021/04/07 00:47:11;;;;;;;3.05;1.75;;;;;;;6.99;58.96;100203.25;5043865;28;20108;-77
2021/04/07 00:49:56;;;;;;;8.80;2.40;;;;;;;7.12;57.79;100198.88;5040988;28;21256;-77
2021/04/07 00:52:42;;;;;;;7.55;2.42;;;;;;;7.06;59.38;100205.53;5043048;28;20048;-77
2021/04/07 00:55:38;;;;;;;7.10;2.70;;;;;;;6.97;59.73;100191.13;5040112;28;20052;-78
2021/04/07 00:58:23;;;;;;;3.72;2.63;;;;;;;6.99;59.92;100199.75;5047557;28;20048;-77
2021/04/07 01:01:08;;;;;;;6.63;2.03;;;;;;;6.97;59.81;100197.34;5045269;28;20060;-77
2021/04/07 01:03:53;;;;;;;9.98;2.55;;;;;;;6.85;60.09;100195.16;5043876;28;20044;-77
2021/04/07 01:06:40;;;;;;;4.00;2.60;;;;;;;6.90;60.55;100206.97;5041927;28;20047;-77
2021/04/07 01:09:25;;;;;;;5.43;3.55;;;;;;;6.78;60.77;100194.78;5043364;28;20049;-77
2021/04/07 01:12:12;;;;;;;4.32;2.53;;;;;;;6.80;60.97;100200.69;5041775;28;20052;-78
2021/04/07 01:14:56;;;;;;;5.05;3.35;;;;;;;6.82;61.21;100211.97;5040319;28;20056;-78
2021/04/07 01:17:42;;;;;;;3.35;2.78;;;;;;;6.78;61.18;100210.97;5043851;28;20052;-78
2021/04/07 01:20:27;;;;;;;;;;;;;;;6.87;61.07;100213.75;5049231;22;20052;-84
2021/04/07 01:23:14;;;;;;;3.95;2.60;;;;;;;6.82;61.09;100206.56;5037850;28;19917;-85
2021/04/07 01:25:59;;;;;;;3.83;3.08;;;;;;;6.99;61.51;100214.06;5013334;28;20544;-85
2021/04/07 01:28:44;;;;;;;3.97;2.40;;;;;;;7.03;59.52;100208.84;5001358;28;20049;-83
2021/04/07 01:31:29;;;;;;;4.63;3.03;;;;;;;7.03;57.62;100212.34;4996681;28;20049;-83
2021/04/07 01:34:22;;;;;;;4.20;2.55;;;;;;;6.84;58.95;100201.66;5001090;28;20049;-85
2021/04/07 01:37:07;;;;;;;11.73;2.97;;;;;;;6.87;60.45;100211.06;4998810;28;20045;-85
2021/04/07 01:39:52;;;;;;;5.05;2.33;;;;;;;7.05;59.30;100202.03;4997894;28;20057;-85
2021/04/07 01:42:40;;;;;;;6.90;2.90;;;;;;;7.25;59.32;100206.19;5000177;28;20446;-84
2021/04/07 01:45:25;;;;;;;8.80;2.90;;;;;;;6.95;58.15;100206.88;5001001;28;20057;-86
2021/04/07 01:48:14;;;;;;;8.55;3.70;;;;;;;7.19;58.77;100207.41;5000873;28;20557;-83
2021/04/07 01:50:59;;;;;;;4.03;2.85;;;;;;;7.11;57.95;100206.19;4994488;28;20510;-88
2021/04/07 01:53:43;;;;;;;4.47;2.40;;;;;;;7.06;57.63;100209.00;5000714;28;20057;-83
2021/04/07 01:56:29;;;;;;;3.70;2.42;;;;;;;6.83;58.51;100201.97;4998858;28;20119;-84
2021/04/07 01:59:16;;;;;;;15.38;4.35;;;;;;;7.00;58.31;100225.66;4993616;28;20050;-85
2021/04/07 02:02:01;;;;;;;5.53;3.60;;;;;;;6.80;58.22;100214.19;4995789;28;20045;-84
2021/04/07 02:04:47;;;;;;;10.18;4.32;;;;;;;7.02;57.51;100209.94;5004140;28;20045;-84
2021/04/07 02:07:32;;;;;;;13.27;3.90;;;;;;;6.87;57.70;100203.75;4990084;28;20077;-83
2021/04/07 02:10:17;;;;;;;;;;;;;;;6.83;57.82;100208.19;4990008;28;20419;-84
2021/04/07 02:13:03;;;;;;;7.13;2.90;;;;;;;6.58;58.27;100207.91;4986155;28;19914;-82
2021/04/07 02:15:48;;;;;;;13.50;3.78;;;;;;;6.65;58.47;100198.31;4999282;28;20045;-83
2021/04/07 02:18:33;;;;;;;11.45;4.68;;;;;;;6.94;59.60;100213.38;4988476;28;20053;-83
2021/04/07 02:21:18;;;;;;;15.35;4.95;;;;;;;7.06;58.88;100214.44;4985642;28;20049;-82
2021/04/07 02:24:04;;;;;;;19.10;5.20;;;;;;;7.17;59.24;100209.59;4992010;28;20546;-84
2021/04/07 02:26:48;;;;;;;7.45;3.40;;;;;;;7.12;58.41;100221.31;4989402;28;20041;-84
2021/04/07 02:29:34;;;;;;;7.70;2.80;;;;;;;7.11;58.47;100216.25;4990308;28;20049;-85
2021/04/07 02:32:21;;;;;;;5.15;2.20;;;;;;;6.95;59.22;100225.78;4991259;28;20534;-82
2021/04/07 02:35:08;;;;;;;9.65;3.42;;;;;;;6.72;58.41;100214.88;4995675;28;20045;-83
2021/04/07 02:37:53;;;;;;;10.18;3.88;;;;;;;6.59;58.84;100218.41;4986327;28;20053;-84
2021/04/07 02:40:38;;;;;;;;;;;;;;;6.51;59.88;100227.19;4990174;28;20037;-84
2021/04/07 02:43:23;;;;;;;11.02;4.13;;;;;;;6.65;60.00;100225.31;4987984;28;19913;-84
2021/04/07 02:46:08;;;;;;;4.50;3.00;;;;;;;6.61;59.66;100229.69;4988732;28;20053;-84
2021/04/07 02:48:53;;;;;;;;;;;;;;;6.53;60.19;100226.91;4989165;28;20057;-84
2021/04/07 02:51:38;;;;;;;4.97;3.30;;;;;;;6.46;60.23;100230.00;4990270;28;19918;-84
2021/04/07 02:54:22;;;;;;;5.68;2.65;;;;;;;6.36;60.54;100220.19;4995603;28;20041;-81
2021/04/07 02:57:07;;;;;;;4.28;2.63;;;;;;;6.52;60.53;100234.19;5022029;28;20045;-84
2021/04/07 02:59:52;;;;;;;7.43;3.30;;;;;;;6.61;60.48;100240.50;5006686;28;20049;-83
2021/04/07 03:02:38;;;;;;;9.10;3.22;;;;;;;6.82;60.68;100236.28;4994269;28;20042;-84
2021/04/07 03:05:24;;;;;;;5.53;3.60;;;;;;;6.75;59.92;100235.13;5003841;28;20053;-84
2021/04/07 03:08:09;;;;;;;7.70;3.70;;;;;;;6.58;60.11;100249.22;4997076;28;20057;-83
2021/04/07 03:10:54;;;;;;;6.82;3.50;;;;;;;6.61;60.47;100240.50;4994653;28;20522;-83
2021/04/07 03:13:39;;;;;;;5.07;3.53;;;;;;;6.63;60.56;100248.31;4995816;28;20061;-85
2021/04/07 03:16:24;;;;;;;6.28;3.15;;;;;;;6.54;60.88;100250.13;4993187;28;20049;-84
2021/04/07 03:19:09;;;;;;;8.85;4.20;;;;;;;6.49;60.63;100256.41;4994944;28;20061;-83
2021/04/07 03:21:54;;;;;;;4.32;3.20;;;;;;;6.60;59.44;100257.84;4991199;28;20037;-85
2021/04/07 03:24:39;;;;;;;10.30;3.25;;;;;;;6.44;59.23;100253.81;4993018;28;20058;-83
2021/04/07 03:27:24;;;;;;;3.40;2.63;;;;;;;6.65;58.44;100260.44;4985024;28;20415;-84
2021/04/07 03:30:10;;;;;;;6.00;3.10;;;;;;;6.76;58.94;100264.50;4991006;28;20411;-84
2021/04/07 03:32:55;;;;;;;6.15;2.95;;;;;;;6.72;58.05;100266.22;5012542;28;20053;-83
2021/04/07 03:35:40;;;;;;;6.20;3.17;;;;;;;6.79;56.96;100261.22;5001149;28;20041;-84
2021/04/07 03:38:25;;;;;;;5.28;3.90;;;;;;;6.84;57.12;100261.13;4984261;28;20045;-82
2021/04/07 03:41:11;;;;;;;6.07;3.72;;;;;;;6.82;57.11;100257.91;4990867;28;20042;-83
2021/04/07 03:43:56;;;;;;;10.75;2.80;;;;;;;6.76;58.07;100251.00;4992291;28;20045;-84
2021/04/07 03:46:41;;;;;;;6.97;2.58;;;;;;;6.84;56.83;100263.03;4993675;28;20494;-82
2021/04/07 03:49:26;;;;;;;4.90;2.72;;;;;;;6.84;56.89;100263.03;4991807;28;20054;-84
2021/04/07 03:52:11;;;;;;;9.52;3.42;;;;;;;6.67;57.50;100277.13;4992164;28;20050;-83
2021/04/07 03:54:58;;;;;;;8.50;3.97;;;;;;;6.75;56.75;100275.66;4997051;28;20502;-87
2021/04/07 03:57:43;;;;;;;15.63;3.70;;;;;;;6.64;56.89;100274.22;4993771;28;20044;-85
2021/04/07 04:00:29;;;;;;;8.50;2.55;;;;;;;6.71;56.29;100278.13;4995044;28;20522;-86
2021/04/07 04:03:15;;;;;;;5.75;3.70;;;;;;;6.77;56.41;100282.34;4999744;28;20057;-84
2021/04/07 04:06:00;;;;;;;5.70;4.07;;;;;;;6.69;55.92;100274.94;4993699;28;20038;-83
2021/04/07 04:08:45;;;;;;;7.18;3.13;;;;;;;6.95;55.94;100275.22;4987423;28;20073;-85
2021/04/07 04:11:30;;;;;;;6.75;3.50;;;;;;;6.92;56.00;100280.41;4998002;28;20046;-84
2021/04/07 04:14:14;;;;;;;5.55;3.60;;;;;;;6.84;55.62;100282.75;4995198;28;20054;-83
2021/04/07 04:16:59;;;;;;;6.03;2.90;;;;;;;6.93;55.51;100277.44;4996394;28;20046;-83
2021/04/07 04:19:44;;;;;;;13.50;3.42;;;;;;;6.88;55.52;100286.44;4985482;28;20045;-83
2021/04/07 04:22:30;;;;;;;5.55;3.17;;;;;;;6.83;55.45;100277.63;4998197;28;20097;-84
2021/04/07 04:25:17;;;;;;;11.50;4.50;;;;;;;6.75;55.93;100281.84;4994551;28;20530;-83
2021/04/07 04:28:02;;;;;;;6.82;3.60;;;;;;;6.69;55.96;100280.34;4992695;28;20038;-83
2021/04/07 04:30:47;;;;;;;6.80;2.80;;;;;;;6.94;56.10;100284.44;4990359;28;20049;-83
2021/04/07 04:33:33;;;;;;;4.78;3.10;;;;;;;6.68;55.93;100284.13;4991561;28;20046;-84
2021/04/07 04:36:18;;;;;;;7.00;2.45;;;;;;;6.70;59.02;100283.84;4991650;28;20053;-88
2021/04/07 04:39:03;;;;;;;4.30;2.85;;;;;;;6.71;56.18;100297.03;4987909;28;20069;-82
2021/04/07 04:41:48;;;;;;;6.60;3.45;;;;;;;6.55;56.19;100290.34;4993495;28;20049;-83
2021/04/07 04:44:34;;;;;;;8.88;3.03;;;;;;;6.59;56.34;100299.44;4984266;28;20049;-81
2021/04/07 04:47:19;;;;;;;10.27;4.80;;;;;;;6.49;56.27;100298.81;4990676;28;20050;-81
2021/04/07 04:50:08;;;;;;;5.63;2.97;;;;;;;6.46;56.37;100305.63;4988017;28;20046;-80
2021/04/07 04:52:53;;;;;;;8.10;4.43;;;;;;;6.42;55.81;100299.22;4986593;28;20042;-81
2021/04/07 04:55:39;;;;;;;7.55;3.28;;;;;;;6.38;56.40;100300.91;4991418;28;20045;-81
2021/04/07 04:58:24;;;;;;;17.65;4.78;;;;;;;6.65;56.37;100310.97;4998331;28;20049;-80
2021/04/07 05:01:09;;;;;;;8.50;3.55;;;;;;;6.52;55.88;100309.84;4986483;28;20037;-80
2021/04/07 05:03:58;;;;;;;12.90;4.97;;;;;;;6.42;56.33;100312.72;4988297;28;20049;-81
2021/04/07 05:06:42;;;;;;;11.23;4.35;;;;;;;6.15;56.90;100307.22;4989156;28;20088;-79
2021/04/07 05:09:28;;;;;;;10.30;3.60;;;;;;;4.84;61.08;100313.38;4986342;28;20058;-80
2021/04/07 05:12:13;;;;;;;16.67;3.85;;;;;;;5.47;60.20;100319.31;4988359;28;20042;-76
2021/04/07 05:14:58;;;;;;;11.70;3.78;;;;;;;4.58;61.31;100317.41;4988589;28;20057;-76
2021/04/07 05:17:43;;;;;;;9.68;4.18;;;;;;;4.18;62.81;100316.72;4988897;28;20042;-76
2021/04/07 05:20:28;;;;;;;;;;;;;;;4.32;62.71;100318.78;4986387;28;20045;-76
2021/04/07 05:23:13;;;;;;;13.02;4.80;;;;;;;4.84;61.34;100318.75;4990279;28;19914;-75
2021/04/07 05:25:59;;;;;;;9.48;4.55;;;;;;;4.61;61.35;100322.25;4985186;28;20095;-77
2021/04/07 05:28:46;;;;;;;20.00;7.88;;;;;;;4.55;60.90;100334.16;4983813;28;20534;-77
2021/04/07 05:31:32;;;;;;;13.90;7.50;;;;;;;3.99;63.07;100329.28;4990160;28;20082;-78
2021/04/07 05:34:17;;;;;;;28.92;5.43;;;;;;;4.34;62.35;100325.47;4988174;28;20053;-77
2021/04/07 05:37:02;;;;;;;6.53;3.95;;;;;;;4.16;62.46;100328.88;4985940;28;20050;-77
2021/04/07 05:39:46;;;;;;;8.00;5.03;;;;;;;4.34;62.68;100341.63;4989311;28;20049;-77
2021/04/07 05:42:31;;;;;;;8.68;3.47;;;;;;;4.31;63.25;100352.97;4986438;28;20045;-77
2021/04/07 05:45:17;;;;;;;237.20;15.45;;;;;;;4.08;63.58;100357.16;4984909;28;20053;-77
2021/04/07 05:48:01;;;;;;;31.67;4.28;;;;;;;4.67;61.72;100351.53;4988368;28;20046;-77
2021/04/07 05:50:52;;;;;;;14.70;4.18;;;;;;;5.11;60.81;100343.25;4986329;28;20037;-78
2021/04/07 05:53:37;;;;;;;22.42;6.57;;;;;;;5.44;59.27;100341.47;4986228;28;20066;-79
2021/04/07 05:56:21;;;;;;;11.23;4.13;;;;;;;5.78;59.51;100353.94;4989240;28;20054;-79
2021/04/07 05:59:07;;;;;;;6.63;3.58;;;;;;;6.06;56.92;100333.31;4987135;28;20053;-78
2021/04/07 06:01:51;;;;;;;8.68;4.35;;;;;;;6.19;57.13;100348.75;4985930;28;20550;-77
2021/04/07 06:04:36;;;;;;;5.13;2.88;;;;;;;6.00;56.84;100352.28;5013737;28;20042;-79
2021/04/07 06:07:21;;;;;;;7.43;3.70;;;;;;;6.42;56.05;100354.03;4988114;28;20407;-79
2021/04/07 06:10:06;;;;;;;7.65;3.22;;;;;;;6.18;56.64;100358.75;4985870;28;20049;-77
2021/04/07 06:12:52;;;;;;;8.85;3.60;;;;;;;6.49;55.17;100374.44;4990205;28;20045;-77
2021/04/07 06:15:38;;;;;;;;;;;;;;;7.70;52.45;100378.28;4986936;28;20057;-78
2021/04/07 06:18:23;;;;;;;8.90;3.97;;;;;;;9.05;49.58;100374.44;4986033;28;20382;-77
2021/04/07 06:21:08;;;;;;;5.18;3.03;;;;;;;11.09;43.22;100378.59;4984808;28;20041;-78
2021/04/07 06:23:53;;;;;;;9.15;3.40;;;;;;;13.62;37.62;100381.91;4988326;28;20566;-77
2021/04/07 06:26:38;;;;;;;3.70;2.97;;;;;;;14.84;34.81;100377.63;5009754;28;20061;-77
2021/04/07 06:29:23;;;;;;;44.78;7.50;;;;;;;14.99;34.96;100378.78;4989568;28;20065;-78
2021/04/07 06:32:08;;;;;;;4.80;2.95;;;;;;;15.85;32.60;100382.41;4987900;28;20053;-79
2021/04/07 06:34:54;;;;;;;8.80;3.42;;;;;;;16.30;31.97;100387.28;4984250;28;20050;-79
2021/04/07 06:37:39;;;;;;;;;;;;;;;16.99;31.81;100397.25;4983485;28;20049;-76
2021/04/07 06:40:24;;;;;;;5.60;3.72;;;;;;;17.64;29.48;100394.41;4987347;28;19914;-78
2021/04/07 06:43:10;;;;;;;11.80;3.38;;;;;;;17.15;30.93;100396.34;4986835;28;20417;-77
2021/04/07 06:45:56;;;;;;;5.68;2.92;;;;;;;18.54;28.16;100397.19;4984327;28;20041;-79
2021/04/07 06:48:42;;;;;;;7.05;3.15;;;;;;;19.01;27.41;100399.22;4986727;28;20506;-77
2021/04/07 06:51:27;;;;;;;8.43;3.20;;;;;;;18.62;27.84;100396.09;4985476;28;20054;-76
2021/04/07 06:54:12;;;;;;;;;;;;;;;19.41;28.07;100409.41;4984670;28;20537;-78
2021/04/07 06:56:57;;;;;;;5.40;2.72;;;;;;;19.69;26.79;100400.59;4988435;28;19914;-79
2021/04/07 06:59:45;;;;;;;5.82;2.40;;;;;;;19.13;28.05;100396.19;4985583;28;20045;-76
2021/04/07 07:02:30;;;;;;;15.05;2.80;;;;;;;19.94;26.96;100407.06;4984468;28;20046;-80
2021/04/07 07:05:17;;;;;;;12.30;3.00;;;;;;;20.47;25.34;100408.09;4986308;28;20053;-79
2021/04/07 07:08:05;;;;;;;9.82;2.95;;;;;;;20.38;25.84;100406.88;4984517;28;20041;-80
2021/04/07 07:10:52;;;;;;;20.45;2.85;;;;;;;20.99;24.68;100410.59;4984615;28;20185;-82
2021/04/07 07:13:38;;;;;;;14.07;2.90;;;;;;;21.40;23.73;100406.31;4985951;28;20054;-81
2021/04/07 07:16:27;;;;;;;5.70;3.50;;;;;;;20.80;24.67;100412.56;4984717;28;20058;-79
2021/04/07 07:19:30;;;;;;;13.45;3.85;;;;;;;22.20;22.79;100416.88;4983161;28;20049;-79
2021/04/07 07:22:27;;;;;;;6.22;3.03;;;;;;;23.51;21.08;100436.34;5038501;22;20052;-80
2021/04/07 07:25:12;;;;;;;10.30;2.78;;;;;;;22.35;22.43;100432.25;5017492;28;20057;-80
2021/04/07 07:27:58;;;;;;;;;;;;;;;21.61;23.27;100430.41;5015777;28;20065;-80
2021/04/07 07:30:43;;;;;;;6.22;2.83;;;;;;;21.44;23.82;100434.75;5011764;28;19913;-81
2021/04/07 07:33:28;;;;;;;13.95;2.83;;;;;;;21.08;24.42;100422.09;5015389;28;20511;-82
2021/04/07 07:36:14;;;;;;;13.85;2.80;;;;;;;22.29;22.51;100431.88;5015834;28;20408;-80
2021/04/07 07:38:59;;;;;;;4.40;2.15;;;;;;;23.36;20.59;100426.53;5012759;28;20424;-80
2021/04/07 07:41:45;;;;;;;6.85;2.95;;;;;;;22.53;21.48;100432.97;5017640;28;20057;-80
2021/04/07 07:44:32;;;;;;;3.92;2.25;;;;;;;23.89;20.33;100439.94;5015711;28;20057;-79
2021/04/07 07:47:37;;;;;;;8.80;2.15;;;;;;;23.32;19.83;100445.16;5019442;28;20522;-79
2021/04/07 07:50:22;;;;;;;9.00;2.28;;;;;;;23.00;20.61;100435.13;5016895;28;20053;-80
2021/04/07 07:53:12;;;;;;;2.83;1.25;;;;;;;23.28;19.65;100438.88;5014533;28;20037;-80
2021/04/07 07:55:56;;;;;;;5.75;1.73;;;;;;;23.97;18.70;100441.47;5013160;28;20408;-80
2021/04/07 07:58:50;;;;;;;10.48;1.88;;;;;;;25.53;18.19;100437.38;5014369;28;20041;-79
2021/04/07 08:01:43;;;;;;;3.58;1.50;;;;;;;24.97;17.56;100443.84;5014160;28;20045;-81
2021/04/07 08:04:30;;;;;;;9.02;1.67;;;;;;;25.19;18.05;100452.66;5011766;28;20396;-79
2021/04/07 08:07:15;;;;;;;4.40;2.03;;;;;;;26.00;16.40;100465.22;5016883;28;20052;-79
2021/04/07 08:09:59;;;;;;;7.35;1.55;;;;;;;25.78;16.03;100466.81;5014136;28;20431;-80
2021/04/07 08:12:45;;;;;;;6.55;1.83;;;;;;;26.18;15.36;100465.66;5016153;28;20045;-79
2021/04/07 08:15:31;;;;;;;18.50;3.08;;;;;;;28.37;12.86;100470.94;5018219;28;20069;-80
2021/04/07 08:18:16;;;;;;;14.45;2.47;;;;;;;27.30;14.24;100479.66;5018131;28;20053;-79
2021/04/07 08:21:03;;;;;;;6.95;1.42;;;;;;;25.95;15.14;100477.66;5015904;28;20069;-80
2021/04/07 08:24:00;;;;;;;7.47;1.60;;;;;;;27.09;14.09;100483.75;5020880;28;20052;-81
2021/04/07 08:26:46;;;;;;;6.45;1.05;;;;;;;27.18;12.18;100481.94;5002272;28;20522;-80
2021/04/07 08:29:31;;;;;;;4.82;1.38;;;;;;;27.34;12.38;100495.13;5022822;28;20406;-78
2021/04/07 08:32:20;;;;;;;8.65;1.75;;;;;;;27.50;11.97;100494.38;5017618;28;20049;-78
2021/04/07 08:35:06;;;;;;;5.65;1.08;;;;;;;26.89;10.54;100497.75;5022620;28;20518;-80
2021/04/07 08:38:04;;;;;;;2.42;1.30;;;;;;;26.61;10.32;100499.13;5006283;28;20045;-78
2021/04/07 08:40:50;;;;;;;1.73;1.23;;;;;;;27.49;10.27;100515.13;5019035;28;20424;-78
2021/04/07 08:43:36;;;;;;;9.70;2.05;;;;;;;27.51;10.12;100509.94;5022718;28;20040;-78
2021/04/07 08:46:31;;;;;;;2.88;0.90;;;;;;;26.61;10.42;100507.50;5022641;28;20052;-78
2021/04/07 08:49:35;;;;;;;8.02;1.95;;;;;;;26.57;9.91;100517.13;5018803;28;20045;-78
2021/04/07 08:52:23;;;;;;;7.88;1.25;;;;;;;26.63;10.30;100512.63;5006882;28;20523;-79
2021/04/07 08:55:19;;;;;;;2.88;0.98;;;;;;;26.72;9.57;100516.41;5011754;28;20400;-79
2021/04/07 08:58:06;;;;;;;9.10;1.17;;;;;;;27.57;10.66;100514.56;5021856;28;20044;-79
2021/04/07 09:00:54;;;;;;;6.07;1.20;;;;;;;27.06;8.91;100532.88;5022400;28;20435;-78
2021/04/07 09:03:42;;;;;;;4.55;2.30;;;;;;;27.41;7.72;100522.91;4984556;28;20519;-78
2021/04/07 09:06:27;;;;;;;6.93;1.48;;;;;;;24.39;10.10;100520.81;5002809;28;20045;-78
2021/04/07 09:09:22;;;;;;;5.40;1.50;;;;;;;21.39;10.22;100509.06;5003450;28;20049;-78
2021/04/07 09:12:08;;;;;;;1.67;1.00;;;;;;;16.80;14.88;100514.59;5018206;28;20041;-79
2021/04/07 09:14:56;;;;;;;2.40;1.10;;;;;;;15.40;17.13;100509.75;5002564;28;20053;-79
2021/04/07 09:18:00;;;;;;;7.47;1.45;;;;;;;14.44;19.40;100517.25;5012567;28;20052;-79
2021/04/07 09:20:55;;;;;;;1.75;1.13;;;;;;;14.90;19.50;100515.06;5020716;28;20421;-78
2021/04/07 09:23:39;;;;;;;3.53;1.20;;;;;;;15.98;15.69;100506.50;5015350;28;20057;-81
2021/04/07 09:26:25;;;;;;;;;;;;;;;15.62;16.55;100513.88;5002704;28;20045;-79
2021/04/07 09:29:12;;;;;;;5.07;1.25;;;;;;;22.39;11.91;100530.81;4997964;28;19914;-79
2021/04/07 09:31:57;;;;;;;2.97;0.95;;;;;;;22.79;10.41;100517.63;5008020;28;20037;-78
2021/04/07 09:34:44;;;;;;;11.32;0.90;;;;;;;22.64;9.32;100529.94;5021718;28;20076;-79
2021/04/07 09:37:39;;;;;;;1.40;0.68;;;;;;;18.41;8.67;100520.50;5010926;28;20061;-79
2021/04/07 09:40:25;;;;;;;4.45;0.70;;;;;;;20.49;9.78;100532.81;5023214;28;20056;-78
2021/04/07 09:43:10;;;;;;;3.83;0.70;;;;;;;24.50;8.13;100538.16;5015870;28;20400;-78
2021/04/07 09:45:55;;;;;;;17.00;1.80;;;;;;;27.56;5.96;100545.72;5021631;28;20036;-79
2021/04/07 09:48:48;;;;;;;;;;;;;;;23.76;6.78;100544.41;5021646;28;20400;-78
2021/04/07 09:51:36;;;;;;;2.53;1.17;;;;;;;21.17;7.84;100547.75;5006859;28;19913;-79
2021/04/07 09:54:22;;;;;;;6.30;0.63;;;;;;;17.73;9.54;100534.38;5021332;28;20526;-79
2021/04/07 09:57:12;;;;;;;12.98;1.17;;;;;;;16.27;10.69;100539.72;5021339;28;20056;-81
2021/04/07 09:59:57;;;;;;;1.17;0.77;;;;;;;15.19;11.63;100546.75;5021115;28;20056;-79
2021/04/07 10:02:42;;;;;;;6.95;1.10;;;;;;;14.58;12.67;100546.19;5021485;28;20045;-79
2021/04/07 10:05:29;;;;;;;4.50;1.80;;;;;;;14.43;14.15;100553.97;5021385;28;20045;-79
2021/04/07 10:08:15;;;;;;;2.45;1.20;;;;;;;13.64;15.78;100551.78;5021240;28;20048;-80
2021/04/07 10:11:08;;;;;;;19.42;11.43;;;;;;;13.76;16.93;100557.28;5021127;28;20065;-78
2021/04/07 10:14:01;;;;;;;3.88;1.63;;;;;;;13.32;17.86;100553.41;4999873;28;20039;-80
2021/04/07 10:16:50;;;;;;;5.50;1.30;;;;;;;12.79;16.71;100556.97;5014591;28;20057;-79
2021/04/07 10:19:37;;;;;;;2.15;1.25;;;;;;;12.74;16.81;100565.34;5018946;28;20560;-80
2021/04/07 10:22:26;;;;;;;8.98;1.75;;;;;;;12.58;19.09;100572.53;5022890;28;20590;-80
2021/04/07 10:25:15;;;;;;;1.58;1.10;;;;;;;12.48;18.99;100573.72;5020374;28;20061;-79
2021/04/07 10:28:00;;;;;;;2.28;1.10;;;;;;;12.59;20.44;100585.84;5019973;28;20061;-80
2021/04/07 10:30:45;;;;;;;1.30;1.15;;;;;;;12.06;21.53;100586.47;5020351;28;20053;-80
2021/04/07 10:33:30;;;;;;;16.67;1.58;;;;;;;11.98;24.88;100587.31;5015895;28;20053;-79
2021/04/07 10:36:15;;;;;;;;;;;;;;;12.31;24.39;100595.63;5020876;28;20060;-80
2021/04/07 10:39:15;;;;;;;1.90;1.17;;;;;;;12.56;23.81;100597.41;5007046;28;19913;-79
2021/04/07 10:42:00;;;;;;;4.53;2.95;;;;;;;13.00;22.08;100595.16;5015402;28;20045;-80
2021/04/07 10:44:57;;;;;;;3.90;1.40;;;;;;;13.20;19.76;100599.81;5012939;28;20045;-80
2021/04/07 10:47:42;;;;;;;7.45;1.25;;;;;;;13.52;18.91;100599.00;5016342;28;20048;-80
2021/04/07 10:50:35;;;;;;;1.25;0.70;;;;;;;13.38;14.50;100600.44;5010690;28;20069;-79
2021/04/07 10:53:42;;;;;;;2.65;1.00;;;;;;;13.37;14.46;100607.84;5016258;28;20044;-80
2021/04/07 10:56:30;;;;;;;4.00;0.60;;;;;;;13.66;14.16;100599.47;5013520;28;20049;-80
2021/04/07 10:59:16;;;;;;;56.25;4.10;;;;;;;13.44;13.89;100610.03;5012462;28;20408;-80
2021/04/07 11:02:14;;;;;;;1.05;0.65;;;;;;;13.86;13.34;100610.69;5020158;28;20238;-80
2021/04/07 11:05:10;;;;;;;11.13;2.80;;;;;;;13.93;13.31;100617.19;5019954;28;20044;-80
2021/04/07 11:08:07;;;;;;;6.40;1.45;;;;;;;14.46;14.06;100618.16;5019715;28;20427;-80
2021/04/07 11:10:52;;;;;;;21.27;1.58;;;;;;;14.41;12.58;100616.44;5019960;28;20052;-80
2021/04/07 11:13:37;;;;;;;0.68;0.60;;;;;;;14.49;13.50;100612.78;5018640;28;20033;-80
2021/04/07 11:16:32;;;;;;;2.67;0.63;;;;;;;14.80;12.34;100623.13;5016079;28;20061;-80
2021/04/07 11:19:17;;;;;;;2.20;0.63;;;;;;;15.27;13.08;100619.78;5009754;28;20045;-79
2021/04/07 11:22:04;;;;;;;2.15;0.77;;;;;;;15.26;12.11;100624.47;5015906;28;20408;-80
2021/04/07 11:24:49;;;;;;;8.05;1.80;;;;;;;16.17;12.78;100625.31;5019338;28;20048;-79
2021/04/07 11:27:35;;;;;;;;;;;;;;;16.25;12.36;100624.31;5020245;28;20048;-78
2021/04/07 11:30:20;;;;;;;;;;;;;;;16.53;12.34;100628.91;5013377;28;19913;-80
2021/04/07 11:33:07;;;;;;;5.57;1.27;;;;;;;16.98;12.69;100633.84;5017970;28;19913;-80
2021/04/07 11:36:04;;;;;;;5.88;1.38;;;;;;;16.96;12.18;100634.25;5014948;28;20404;-80
2021/04/07 11:38:53;;;;;;;9.00;1.45;;;;;;;17.45;10.50;100633.66;5011678;28;20052;-80
2021/04/07 11:44:35;;;;;;;3.30;0.50;;;;;;;19.93;8.78;100637.31;5012135;28;20037;-80
2021/04/07 11:47:20;;;;;;;8.55;0.60;;;;;;;18.99;9.34;100638.59;5013907;28;20589;-80
2021/04/07 11:50:07;;;;;;;3.78;0.93;;;;;;;18.48;10.42;100636.28;5022149;28;20057;-80
2021/04/07 11:52:52;;;;;;;5.85;0.95;;;;;;;18.76;10.09;100647.72;5021638;28;20037;-80
2021/04/07 11:55:39;;;;;;;3.10;1.00;;;;;;;18.67;9.99;100649.97;5022477;28;20053;-80
2021/04/07 11:58:25;;;;;;;4.93;1.00;;;;;;;19.44;9.86;100654.94;5021573;28;20045;-80
2021/04/07 12:01:11;;;;;;;2.90;0.90;;;;;;;18.51;9.37;100645.72;5021754;28;20048;-80
2021/04/07 12:03:56;;;;;;;4.22;1.42;;;;;;;18.50;9.20;100655.94;5021374;28;20037;-80
2021/04/07 12:06:42;;;;;;;7.53;1.00;;;;;;;19.60;8.89;100658.28;5022422;28;20045;-79
2021/04/07 12:09:27;;;;;;;2.85;0.65;;;;;;;19.94;8.60;100655.47;5023337;28;20058;-80
2021/04/07 12:12:12;;;;;;;2.58;0.98;;;;;;;19.28;8.72;100664.56;5023613;28;20045;-80
2021/04/07 12:14:58;;;;;;;1.17;0.65;;;;;;;21.84;7.66;100659.78;5023713;28;20056;-80
2021/04/07 12:17:43;;;;;;;2.45;1.00;;;;;;;23.79;6.37;100665.78;5004816;28;20052;-80
2021/04/07 12:20:28;;;;;;;;;;;;;;;24.86;5.23;100665.72;5023185;28;20049;-80
2021/04/07 12:23:13;;;;;;;1.83;0.75;;;;;;;21.81;6.29;100657.78;5006330;28;19913;-79
2021/04/07 12:25:58;;;;;;;;;;;;;;;24.32;4.44;100661.88;5023547;28;20048;-79
2021/04/07 12:28:46;;;;;;;1.50;0.77;;;;;;;26.06;3.42;100661.41;5019069;28;20299;-80
2021/04/07 12:31:31;;;;;;;1.00;0.43;;;;;;;27.40;2.77;100654.59;5022864;28;20041;-80
2021/04/07 12:34:16;;;;;;;1.95;0.50;;;;;;;28.14;2.27;100663.38;5022758;28;20053;-79
2021/04/07 12:37:01;;;;;;;0.75;0.43;;;;;;;27.47;2.58;100665.63;5025038;28;20056;-79
2021/04/07 12:39:46;;;;;;;1.60;0.50;;;;;;;29.41;1.96;100676.75;5009730;28;20049;-80
2021/04/07 12:42:31;;;;;;;4.50;0.60;;;;;;;31.65;1.96;100667.97;5022799;28;20053;-79
2021/04/07 12:45:16;;;;;;;12.55;1.55;;;;;;;33.04;1.38;100680.69;5016837;28;20516;-79
2021/04/07 12:48:01;;;;;;;7.38;0.63;;;;;;;32.59;0.77;100675.00;5015525;28;20405;-80
2021/04/07 12:50:47;;;;;;;0.60;0.40;;;;;;;31.41;0.63;100667.66;5023382;28;20131;-80
2021/04/07 12:56:44;;;;;;;3.22;0.57;;;;;;;35.12;0.28;100668.09;5017407;28;20564;-79
2021/04/07 12:59:32;;;;;;;2.20;0.50;;;;;;;32.25;0.57;100674.00;5016200;28;20053;-79
2021/04/07 13:02:17;;;;;;;6.95;0.60;;;;;;;33.88;0.61;100678.00;5024421;28;20048;-79
2021/04/07 13:05:03;;;;;;;1.50;0.52;;;;;;;35.47;0.00;100679.53;5007401;28;20397;-79
2021/04/07 13:07:48;;;;;;;0.65;0.45;;;;;;;31.62;0.68;100676.53;5017781;28;20526;-79